Time;durP1;ratioP1;P1;durP2;ratioP2;P2;SDS_P1;SDS_P2;PMS_P1;PMS_P2;Temp;Humidity;BMP_temperature;BMP_pressure;BME280_temperature;BME280_humidity;BME280_pressure;Samples;Min_cycle;Max_cycle;Signal;HPM_P1;HPM_P2
2023/06/03 11:07:27;;;;;;;65.88;8.98;;;;;;;;;;5006849;27;20649;-56
2023/06/03 11:09:54;;;;;;;62.92;8.95;;;;;;;;;;5006396;28;20083;-56
2023/06/03 11:12:20;;;;;;;47.03;7.43;;;;;;;;;;5026197;28;20536;-56
2023/06/03 11:14:48;;;;;;;49.88;7.55;;;;;;;;;;5028592;28;20511;-56
2023/06/03 11:17:18;;;;;;;50.00;7.63;;;;;;;;;;5027787;28;20067;-57
2023/06/03 11:19:46;;;;;;;62.00;8.95;;;;;;;;;;5028821;28;20040;-58
2023/06/03 11:22:12;;;;;;;53.78;8.10;;;;;;;;;;5026443;28;20037;-56
2023/06/03 11:24:38;;;;;;;41.38;7.28;;;;;;;;;;5026829;28;20032;-57
2023/06/03 11:27:15;;;;;;;80.00;11.60;;;;;;;;;;5026279;28;20037;-56
2023/06/03 11:29:46;;;;;;;47.53;7.60;;;;;;;;;;5028523;28;20096;-58
2023/06/03 11:32:15;;;;;;;46.60;7.50;;;;;;;;;;5024584;28;20037;-55
2023/06/03 11:34:41;;;;;;;52.13;7.90;;;;;;;;;;5028346;28;20183;-57
2023/06/03 11:37:06;;;;;;;85.80;11.50;;;;;;;;;;5027221;28;20037;-58
2023/06/03 11:39:50;;;;;;;47.13;7.45;;;;;;;;;;5028923;28;20577;-57
2023/06/03 11:42:15;;;;;;;47.08;7.53;;;;;;;;;;5027102;28;20083;-57
2023/06/03 11:44:41;;;;;;;38.60;6.73;;;;;;;;;;5029507;28;20082;-56
2023/06/03 11:47:07;;;;;;;72.60;10.30;;;;;;;;;;5028740;28;20299;-56
2023/06/03 11:49:34;;;;;;;52.38;7.88;;;;;;;;;;5027592;28;20976;-56
2023/06/03 11:52:00;;;;;;;110.43;13.15;;;;;;;;;;5025213;28;20045;-56
2023/06/03 11:54:26;;;;;;;60.22;8.68;;;;;;;;;;5025206;28;20025;-56
2023/06/03 11:56:51;;;;;;;57.80;8.38;;;;;;;;;;5025640;28;20021;-59
2023/06/03 11:59:21;;;;;;;70.75;9.18;;;;;;;;;;5027232;28;20076;-58
2023/06/03 12:02:05;;;;;;;110.40;12.38;;;;;;;;;;5026181;28;20044;-58
2023/06/03 12:04:31;;;;;;;49.40;8.15;;;;;;;;;;5028219;28;20029;-57
2023/06/03 12:06:57;;;;;;;93.88;11.73;;;;;;;;;;5026907;28;20037;-55
2023/06/03 12:09:26;;;;;;;58.83;8.38;;;;;;;;;;5028084;28;20424;-58
2023/06/03 12:11:52;;;;;;;91.53;11.05;;;;;;;;;;5024140;28;20072;-57
2023/06/03 12:14:23;;;;;;;64.47;8.38;;;;;;;;;;5026574;28;20480;-57
2023/06/03 12:16:49;;;;;;;54.30;8.07;;;;;;;;;;5024170;28;20041;-58
2023/06/03 12:19:14;;;;;;;56.33;7.57;;;;;;;;;;5013804;28;20017;-57
2023/06/03 12:21:40;;;;;;;60.17;8.05;;;;;;;;;;5014113;28;20403;-56
2023/06/03 12:24:09;;;;;;;59.60;8.63;;;;;;;;;;5010721;28;20026;-58
2023/06/03 12:26:36;;;;;;;46.53;6.72;;;;;;;;;;5012731;28;20451;-56
2023/06/03 12:29:08;;;;;;;70.72;10.23;;;;;;;;;;5012940;28;20037;-56
2023/06/03 12:31:34;;;;;;;50.83;7.45;;;;;;;;;;5011613;28;20041;-55
2023/06/03 12:34:00;;;;;;;93.75;11.63;;;;;;;;;;5010430;28;20437;-56
2023/06/03 12:36:43;;;;;;;58.50;8.18;;;;;;;;;;5013794;28;20029;-56
2023/06/03 12:39:09;;;;;;;75.43;9.70;;;;;;;;;;5011909;28;20038;-55
2023/06/03 12:41:34;;;;;;;44.40;6.73;;;;;;;;;;5012684;28;20102;-55
2023/06/03 12:44:03;;;;;;;68.87;9.17;;;;;;;;;;5011907;28;20030;-57
2023/06/03 12:46:28;;;;;;;42.70;6.40;;;;;;;;;;5013805;28;20424;-55
2023/06/03 12:48:56;;;;;;;65.97;8.50;;;;;;;;;;5012488;28;20029;-57
2023/06/03 12:51:23;;;;;;;46.70;7.07;;;;;;;;;;5012295;28;20045;-56
2023/06/03 12:53:48;;;;;;;60.78;8.38;;;;;;;;;;5010755;28;20070;-55
2023/06/03 12:56:13;;;;;;;56.28;8.00;;;;;;;;;;5011283;28;20356;-55
2023/06/03 12:58:38;;;;;;;57.57;7.63;;;;;;;;;;5014004;28;20112;-58
2023/06/03 13:01:04;;;;;;;88.32;11.20;;;;;;;;;;5011990;28;20292;-57
2023/06/03 13:03:29;;;;;;;76.05;9.75;;;;;;;;;;5014573;28;20031;-56
2023/06/03 13:05:54;;;;;;;76.57;9.20;;;;;;;;;;5012860;28;20033;-56
2023/06/03 13:08:20;;;;;;;60.23;8.00;;;;;;;;;;5015107;28;20734;-56
2023/06/03 13:10:46;;;;;;;69.82;8.23;;;;;;;;;;5012140;28;20311;-57
2023/06/03 13:13:11;;;;;;;94.20;10.88;;;;;;;;;;5011255;28;20029;-55
2023/06/03 13:15:36;;;;;;;51.20;7.57;;;;;;;;;;5013457;28;20060;-55
2023/06/03 13:18:02;;;;;;;95.47;11.20;;;;;;;;;;5013234;28;20132;-55
2023/06/03 13:20:27;;;;;;;68.07;8.38;;;;;;;;;;5012707;28;20061;-57
2023/06/03 13:22:53;;;;;;;67.90;8.80;;;;;;;;;;5013168;28;20076;-57
2023/06/03 13:25:18;;;;;;;61.43;8.40;;;;;;;;;;5007928;28;20291;-56
2023/06/03 13:27:44;;;;;;;63.08;8.20;;;;;;;;;;5013126;28;20268;-58
2023/06/03 13:30:11;;;;;;;103.78;12.07;;;;;;;;;;5010768;28;20025;-54
2023/06/03 13:32:38;;;;;;;58.20;7.63;;;;;;;;;;5012089;28;20170;-55
2023/06/03 13:35:03;;;;;;;91.22;10.32;;;;;;;;;;5011078;28;20283;-55
2023/06/03 13:37:28;;;;;;;58.70;7.30;;;;;;;;;;5010976;28;20862;-57
2023/06/03 13:39:54;;;;;;;62.75;7.75;;;;;;;;;;5012912;28;20024;-56
2023/06/03 13:42:19;;;;;;;72.23;8.43;;;;;;;;;;5009211;28;20041;-55
2023/06/03 13:44:45;;;;;;;67.63;7.90;;;;;;;;;;5013350;28;20310;-56
2023/06/03 13:47:10;;;;;;;96.38;10.45;;;;;;;;;;5010858;28;20393;-55
2023/06/03 13:49:35;;;;;;;69.78;8.15;;;;;;;;;;5014023;28;20075;-58
2023/06/03 13:52:01;;;;;;;108.33;11.23;;;;;;;;;;5010066;28;20262;-56
2023/06/03 13:54:26;;;;;;;58.42;7.03;;;;;;;;;;5013116;28;20962;-57
2023/06/03 13:56:53;;;;;;;73.40;7.70;;;;;;;;;;5012918;28;20508;-56
2023/06/03 13:59:19;;;;;;;47.47;6.65;;;;;;;;;;5011668;28;20391;-57
2023/06/03 14:01:45;;;;;;;63.78;7.65;;;;;;;;;;5011305;28;20034;-58
2023/06/03 14:04:10;;;;;;;77.20;8.60;;;;;;;;;;5011423;28;20024;-56
2023/06/03 14:06:36;;;;;;;52.20;6.80;;;;;;;;;;5012303;28;20323;-55
2023/06/03 14:09:03;;;;;;;85.45;9.35;;;;;;;;;;5011472;28;20647;-56
2023/06/03 14:11:28;;;;;;;58.70;6.97;;;;;;;;;;5010266;28;20680;-55
2023/06/03 14:13:53;;;;;;;62.30;7.10;;;;;;;;;;5012074;28;20706;-56
2023/06/03 14:16:22;;;;;;;57.80;7.00;;;;;;;;;;5009101;28;20545;-56
2023/06/03 14:18:47;;;;;;;52.10;6.72;;;;;;;;;;5013780;28;20263;-55
2023/06/03 14:21:12;;;;;;;87.13;9.13;;;;;;;;;;5009594;28;20044;-55
2023/06/03 14:23:37;;;;;;;44.95;5.60;;;;;;;;;;5011565;28;20021;-56
2023/06/03 14:26:03;;;;;;;99.23;9.97;;;;;;;;;;5010342;28;20042;-57
2023/06/03 14:28:28;;;;;;;52.08;6.53;;;;;;;;;;5012004;28;20280;-57
2023/06/03 14:30:54;;;;;;;65.75;7.57;;;;;;;;;;5012763;28;20521;-56
2023/06/03 14:33:23;;;;;;;76.55;8.05;;;;;;;;;;5010816;28;20404;-56
2023/06/03 14:35:48;;;;;;;59.65;7.30;;;;;;;;;;5012497;28;20041;-56
2023/06/03 14:38:15;;;;;;;109.63;11.17;;;;;;;;;;5012520;28;20032;-57
2023/06/03 14:40:40;;;;;;;56.47;6.47;;;;;;;;;;5012475;28;20286;-57
2023/06/03 14:43:05;;;;;;;83.23;9.23;;;;;;;;;;5011067;28;20025;-55
2023/06/03 14:45:30;;;;;;;68.30;7.82;;;;;;;;;;5011626;28;20082;-56
2023/06/03 14:47:56;;;;;;;63.77;7.17;;;;;;;;;;5012050;28;20041;-57
2023/06/03 14:50:21;;;;;;;64.68;7.28;;;;;;;;;;5007925;28;20276;-57
2023/06/03 14:52:46;;;;;;;62.08;7.07;;;;;;;;;;5010223;28;20038;-55
2023/06/03 14:55:11;;;;;;;86.83;9.57;;;;;;;;;;5011009;28;20033;-57
2023/06/03 14:57:37;;;;;;;61.67;7.17;;;;;;;;;;5011665;28;20445;-57
2023/06/03 15:00:03;;;;;;;65.32;7.63;;;;;;;;;;5011295;28;20083;-55
2023/06/03 15:02:28;;;;;;;58.95;6.63;;;;;;;;;;5010496;28;20034;-55
2023/06/03 15:04:53;;;;;;;78.30;8.20;;;;;;;;;;5011616;28;20163;-55
2023/06/03 15:07:19;;;;;;;104.57;10.97;;;;;;;;;;5010320;28;20284;-55
2023/06/03 15:09:44;;;;;;;81.32;8.25;;;;;;;;;;5011926;28;20261;-55
2023/06/03 15:12:10;;;;;;;128.82;12.27;;;;;;;;;;5006153;28;20030;-56
2023/06/03 15:14:35;;;;;;;71.18;7.38;;;;;;;;;;5008103;28;20029;-57
2023/06/03 15:17:00;;;;;;;82.88;8.35;;;;;;;;;;5009423;28;20103;-56
2023/06/03 15:19:26;;;;;;;89.88;8.48;;;;;;;;;;5009865;28;20029;-56
2023/06/03 15:21:51;;;;;;;112.40;10.05;;;;;;;;;;5009337;28;20029;-55
2023/06/03 15:24:16;;;;;;;140.85;13.00;;;;;;;;;;5009273;28;20075;-57
2023/06/03 15:26:42;;;;;;;64.80;7.07;;;;;;;;;;5009961;28;20029;-57
2023/06/03 15:29:07;;;;;;;113.40;11.03;;;;;;;;;;5008989;28;20091;-57
2023/06/03 15:31:32;;;;;;;69.68;7.35;;;;;;;;;;5011360;28;20419;-55
2023/06/03 15:33:57;;;;;;;72.73;7.50;;;;;;;;;;5012616;28;20036;-57
2023/06/03 15:36:23;;;;;;;71.37;7.50;;;;;;;;;;5012400;28;20877;-56
2023/06/03 15:38:48;;;;;;;69.70;7.30;;;;;;;;;;5012384;28;20608;-57
2023/06/03 15:41:13;;;;;;;120.93;11.37;;;;;;;;;;5010385;28;20320;-59
2023/06/03 15:43:38;;;;;;;78.30;7.78;;;;;;;;;;5011496;28;20678;-56
2023/06/03 15:46:04;;;;;;;62.30;7.00;;;;;;;;;;5011066;28;20709;-56
2023/06/03 15:48:29;;;;;;;68.80;7.27;;;;;;;;;;5014255;28;20371;-55
2023/06/03 15:50:55;;;;;;;110.65;10.13;;;;;;;;;;5010466;28;20767;-57
2023/06/03 15:53:20;;;;;;;116.03;10.90;;;;;;;;;;5010991;28;20029;-55
2023/06/03 15:55:45;;;;;;;54.73;6.13;;;;;;;;;;5017044;28;20253;-56
2023/06/03 15:58:11;;;;;;;115.23;11.10;;;;;;;;;;5016124;28;20040;-58
2023/06/03 16:00:37;;;;;;;55.10;5.85;;;;;;;;;;5016318;28;20375;-56
2023/06/03 16:03:02;;;;;;;57.85;6.38;;;;;;;;;;5015949;28;20029;-57
2023/06/03 16:05:28;;;;;;;69.07;7.05;;;;;;;;;;5014704;28;20107;-56
2023/06/03 16:07:53;;;;;;;58.35;6.30;;;;;;;;;;5016486;28;20014;-56
2023/06/03 16:10:18;;;;;;;129.20;11.63;;;;;;;;;;5015154;28;20104;-57
2023/06/03 16:12:44;;;;;;;67.25;7.05;;;;;;;;;;5017107;28;20024;-56
2023/06/03 16:15:09;;;;;;;84.90;8.32;;;;;;;;;;5016007;28;20036;-57
2023/06/03 16:17:35;;;;;;;80.15;8.65;;;;;;;;;;5017072;28;20797;-56
2023/06/03 16:20:00;;;;;;;68.65;6.82;;;;;;;;;;5014825;28;20124;-56
2023/06/03 16:22:25;;;;;;;64.32;6.90;;;;;;;;;;5014071;28;20129;-57
2023/06/03 16:24:51;;;;;;;67.82;6.80;;;;;;;;;;5016534;28;20033;-58
2023/06/03 16:27:16;;;;;;;92.57;8.95;;;;;;;;;;5015612;28;20047;-57
2023/06/03 16:29:41;;;;;;;91.55;8.20;;;;;;;;;;5014953;28;20083;-57
2023/06/03 16:32:07;;;;;;;79.50;7.45;;;;;;;;;;5014551;28;20038;-55
2023/06/03 16:34:32;;;;;;;57.63;6.17;;;;;;;;;;5017913;28;20099;-62
2023/06/03 16:36:57;;;;;;;84.67;7.57;;;;;;;;;;5015482;28;20453;-56
2023/06/03 16:39:22;;;;;;;81.35;7.82;;;;;;;;;;5013946;28;20498;-57
2023/06/03 16:41:48;;;;;;;101.13;8.97;;;;;;;;;;5014285;28;20084;-57
2023/06/03 16:44:13;;;;;;;103.70;10.17;;;;;;;;;;5012819;28;20063;-58
2023/06/03 16:46:38;;;;;;;55.80;5.83;;;;;;;;;;5016097;28;20774;-56
2023/06/03 16:49:03;;;;;;;60.50;6.60;;;;;;;;;;5015896;28;20283;-58
2023/06/03 16:51:29;;;;;;;60.00;6.47;;;;;;;;;;5013517;28;20041;-57
2023/06/03 16:53:55;;;;;;;64.93;6.60;;;;;;;;;;5013870;28;20070;-55
2023/06/03 16:56:20;;;;;;;112.68;10.20;;;;;;;;;;5014031;28;20057;-57
2023/06/03 16:58:45;;;;;;;59.47;6.43;;;;;;;;;;5015726;28;20025;-58
2023/06/03 17:01:11;;;;;;;74.82;7.53;;;;;;;;;;5014486;28;20148;-56
2023/06/03 17:03:36;;;;;;;54.15;6.10;;;;;;;;;;5016468;28;20025;-56
2023/06/03 17:06:02;;;;;;;73.60;6.80;;;;;;;;;;5014975;28;20605;-57
2023/06/03 17:08:27;;;;;;;73.15;6.97;;;;;;;;;;5013797;28;20031;-56
2023/06/03 17:10:53;;;;;;;88.70;8.10;;;;;;;;;;5014975;28;20041;-57
2023/06/03 17:13:18;;;;;;;105.30;9.75;;;;;;;;;;5014436;28;20551;-57
2023/06/03 17:15:43;;;;;;;69.03;6.83;;;;;;;;;;5014955;28;20033;-56
2023/06/03 17:18:08;;;;;;;57.07;6.13;;;;;;;;;;5015681;28;20754;-58
2023/06/03 17:20:34;;;;;;;38.72;4.78;;;;;;;;;;5012983;28;20363;-57
2023/06/03 17:22:59;;;;;;;50.78;5.22;;;;;;;;;;5013980;28;20696;-56
2023/06/03 17:25:28;;;;;;;87.03;7.77;;;;;;;;;;5013565;28;20107;-56
2023/06/03 17:27:53;;;;;;;78.93;7.43;;;;;;;;;;5015212;28;20812;-58
2023/06/03 17:30:19;;;;;;;107.05;10.15;;;;;;;;;;5013906;28;20116;-58
2023/06/03 17:32:44;;;;;;;64.32;6.30;;;;;;;;;;5012762;28;20033;-59
2023/06/03 17:35:09;;;;;;;85.28;7.40;;;;;;;;;;5013791;28;20026;-57
2023/06/03 17:37:35;;;;;;;59.83;6.13;;;;;;;;;;5013219;28;20024;-58
2023/06/03 17:40:00;;;;;;;66.70;6.47;;;;;;;;;;5015992;28;20044;-56
2023/06/03 17:42:25;;;;;;;103.28;9.40;;;;;;;;;;5011452;28;20029;-57
2023/06/03 17:44:50;;;;;;;74.43;7.10;;;;;;;;;;5015539;28;20021;-57
2023/06/03 17:47:16;;;;;;;114.33;9.60;;;;;;;;;;5012539;28;20300;-57
2023/06/03 17:49:41;;;;;;;68.97;6.00;;;;;;;;;;5015114;28;20609;-56
2023/06/03 17:52:06;;;;;;;66.60;6.30;;;;;;;;;;5012634;28;20055;-56
2023/06/03 17:54:31;;;;;;;60.70;5.88;;;;;;;;;;5012072;28;20348;-58
2023/06/03 17:56:57;;;;;;;65.57;6.33;;;;;;;;;;5015172;28;20084;-56
2023/06/03 17:59:22;;;;;;;102.50;9.40;;;;;;;;;;5013521;28;20065;-57
2023/06/03 18:01:47;;;;;;;95.93;8.03;;;;;;;;;;5012967;28;20165;-55
2023/06/03 18:04:12;;;;;;;60.28;5.63;;;;;;;;;;5012356;28;20345;-56
2023/06/03 18:06:38;;;;;;;48.57;5.10;;;;;;;;;;5015145;28;20041;-54
2023/06/03 18:09:03;;;;;;;56.92;5.65;;;;;;;;;;5014784;28;20027;-56
2023/06/03 18:11:28;;;;;;;103.80;9.30;;;;;;;;;;5011157;28;20037;-59
2023/06/03 18:13:54;;;;;;;63.43;5.70;;;;;;;;;;5014756;28;20036;-56
2023/06/03 18:16:19;;;;;;;99.63;8.98;;;;;;;;;;5011103;28;20280;-58
2023/06/03 18:18:44;;;;;;;55.77;5.40;;;;;;;;;;5014932;28;20017;-56
2023/06/03 18:21:09;;;;;;;64.43;5.97;;;;;;;;;;5012115;28;20819;-55
2023/06/03 18:23:35;;;;;;;46.27;4.90;;;;;;;;;;5012236;28;20033;-55
2023/06/03 18:26:00;;;;;;;49.87;4.97;;;;;;;;;;5011093;28;20295;-55
2023/06/03 18:28:25;;;;;;;109.00;8.63;;;;;;;;;;5012835;28;20807;-57
2023/06/03 18:30:51;;;;;;;70.23;6.43;;;;;;;;;;5014467;28;20029;-56
2023/06/03 18:33:17;;;;;;;75.28;7.00;;;;;;;;;;5011905;28;20260;-59
2023/06/03 18:35:43;;;;;;;43.05;4.82;;;;;;;;;;5012814;28;20948;-57
2023/06/03 18:38:08;;;;;;;51.25;5.05;;;;;;;;;;5013641;28;20494;-58
2023/06/03 18:40:33;;;;;;;52.70;5.20;;;;;;;;;;5011678;28;20037;-58
2023/06/03 18:42:58;;;;;;;51.28;4.93;;;;;;;;;;5014201;28;21126;-58
2023/06/03 18:45:24;;;;;;;99.38;8.60;;;;;;;;;;5011719;28;20053;-58
2023/06/03 18:47:49;;;;;;;52.08;4.85;;;;;;;;;;5015293;28;20017;-61
2023/06/03 18:50:15;;;;;;;50.30;5.10;;;;;;;;;;5014806;28;20136;-55
2023/06/03 18:52:40;;;;;;;45.42;4.68;;;;;;;;;;5013860;28;20029;-56
2023/06/03 18:55:05;;;;;;;38.70;4.15;;;;;;;;;;5014984;28;20017;-61
2023/06/03 18:57:31;;;;;;;108.38;9.13;;;;;;;;;;5013859;28;20458;-58
2023/06/03 18:59:57;;;;;;;63.78;5.88;;;;;;;;;;5015090;28;20080;-56
2023/06/03 19:02:22;;;;;;;98.38;8.80;;;;;;;;;;5012862;28;20025;-57
2023/06/03 19:04:47;;;;;;;47.63;4.63;;;;;;;;;;5013957;28;20060;-58
2023/06/03 19:07:13;;;;;;;53.33;5.03;;;;;;;;;;5013555;28;20049;-58
2023/06/03 19:09:38;;;;;;;52.00;5.07;;;;;;;;;;5014780;28;20040;-57
2023/06/03 19:12:04;;;;;;;65.00;5.90;;;;;;;;;;5013265;28;20302;-57
2023/06/03 19:14:29;;;;;;;87.93;7.00;;;;;;;;;;5011509;28;20033;-56
2023/06/03 19:16:55;;;;;;;50.35;4.85;;;;;;;;;;5013413;28;20037;-56
2023/06/03 19:19:20;;;;;;;99.28;8.45;;;;;;;;;;5012633;28;20033;-58
2023/06/03 19:21:46;;;;;;;77.13;6.47;;;;;;;;;;5011495;28;20037;-57
2023/06/03 19:24:11;;;;;;;47.60;4.73;;;;;;;;;;5014775;28;20276;-58
2023/06/03 19:26:36;;;;;;;64.73;5.23;;;;;;;;;;5010384;28;20049;-60
2023/06/03 19:29:02;;;;;;;46.40;4.77;;;;;;;;;;5018780;28;20349;-60
2023/06/03 19:31:28;;;;;;;107.78;8.73;;;;;;;;;;5012525;28;20354;-57
2023/06/03 19:33:54;;;;;;;57.40;5.18;;;;;;;;;;5016890;28;20020;-56
2023/06/03 19:36:19;;;;;;;65.85;5.88;;;;;;;;;;5015226;28;20034;-56
2023/06/03 19:38:45;;;;;;;55.75;5.22;;;;;;;;;;5017077;28;20052;-57
2023/06/03 19:41:11;;;;;;;50.42;4.68;;;;;;;;;;5017610;28;20033;-56
2023/06/03 19:43:36;;;;;;;111.63;9.23;;;;;;;;;;5016236;28;20036;-56
2023/06/03 19:46:01;;;;;;;74.80;6.13;;;;;;;;;;5017932;28;20466;-56
2023/06/03 19:48:27;;;;;;;105.28;9.13;;;;;;;;;;5016991;28;20087;-56
2023/06/03 19:50:53;;;;;;;94.30;7.82;;;;;;;;;;5014946;28;20184;-59
2023/06/03 19:53:18;;;;;;;52.08;5.18;;;;;;;;;;5018005;28;20037;-56
2023/06/03 19:55:44;;;;;;;41.80;4.50;;;;;;;;;;5016621;28;20029;-56
2023/06/03 19:58:09;;;;;;;57.00;5.25;;;;;;;;;;5017203;28;20037;-56
2023/06/03 20:00:35;;;;;;;103.47;8.65;;;;;;;;;;5016233;28;20042;-57
2023/06/03 20:03:01;;;;;;;55.17;5.28;;;;;;;;;;5016881;28;20030;-57
2023/06/03 20:05:27;;;;;;;109.07;7.80;;;;;;;;;;5014701;28;20065;-58
2023/06/03 20:07:52;;;;;;;61.67;5.57;;;;;;;;;;5014175;28;20651;-57
2023/06/03 20:10:17;;;;;;;75.85;6.20;;;;;;;;;;5016968;28;20574;-58
2023/06/03 20:12:43;;;;;;;58.10;5.17;;;;;;;;;;5014802;28;20020;-57
2023/06/03 20:15:08;;;;;;;55.70;5.13;;;;;;;;;;5016757;28;20459;-58
2023/06/03 20:17:33;;;;;;;130.48;10.52;;;;;;;;;;5015029;28;20025;-58
2023/06/03 20:19:59;;;;;;;59.73;5.30;;;;;;;;;;5016458;28;20025;-56
2023/06/03 20:22:24;;;;;;;99.50;8.30;;;;;;;;;;5015075;28;20276;-58
2023/06/03 20:24:50;;;;;;;68.63;5.78;;;;;;;;;;5016367;28;20025;-59
2023/06/03 20:27:15;;;;;;;59.47;5.15;;;;;;;;;;5015597;28;20044;-58
2023/06/03 20:29:40;;;;;;;63.40;5.38;;;;;;;;;;5015613;28;20251;-58
2023/06/03 20:32:06;;;;;;;68.68;5.88;;;;;;;;;;5014893;28;20037;-55
2023/06/03 20:34:31;;;;;;;105.57;8.07;;;;;;;;;;5014572;28;20079;-54
2023/06/03 20:36:57;;;;;;;57.35;5.35;;;;;;;;;;5017757;28;20046;-56
2023/06/03 20:39:22;;;;;;;59.72;5.65;;;;;;;;;;5016030;28;20051;-55
2023/06/03 20:41:47;;;;;;;86.87;6.73;;;;;;;;;;5015759;28;20040;-56
2023/06/03 20:44:12;;;;;;;62.10;5.47;;;;;;;;;;5016448;28;20271;-55
2023/06/03 20:46:38;;;;;;;85.40;7.13;;;;;;;;;;5014270;28;20988;-55
2023/06/03 20:49:03;;;;;;;61.10;5.18;;;;;;;;;;5015741;28;20718;-56
2023/06/03 20:51:28;;;;;;;104.22;8.00;;;;;;;;;;5013953;28;20041;-56
2023/06/03 20:53:53;;;;;;;60.77;5.47;;;;;;;;;;5015762;28;20103;-57
2023/06/03 20:56:19;;;;;;;66.05;5.80;;;;;;;;;;5016065;28;20326;-55
2023/06/03 20:58:44;;;;;;;49.63;4.73;;;;;;;;;;5016518;28;20566;-54
2023/06/03 21:01:09;;;;;;;40.08;4.35;;;;;;;;;;5016642;28;20554;-55
2023/06/03 21:03:35;;;;;;;108.07;9.00;;;;;;;;;;5015737;28;20014;-55
2023/06/03 21:06:01;;;;;;;55.22;5.50;;;;;;;;;;5016861;28;20049;-55
2023/06/03 21:08:26;;;;;;;66.17;5.83;;;;;;;;;;5016978;28;20025;-57
2023/06/03 21:10:51;;;;;;;73.77;6.27;;;;;;;;;;5013441;28;20272;-56
2023/06/03 21:13:16;;;;;;;41.40;4.10;;;;;;;;;;5014988;28;20352;-56
2023/06/03 21:15:41;;;;;;;114.17;8.33;;;;;;;;;;5013962;28;20274;-56
2023/06/03 21:18:07;;;;;;;46.45;4.88;;;;;;;;;;5015910;28;20269;-56
2023/06/03 21:20:32;;;;;;;89.60;7.70;;;;;;;;;;5014038;28;20037;-56
2023/06/03 21:22:57;;;;;;;75.37;6.00;;;;;;;;;;5014320;28;20057;-56
2023/06/03 21:25:22;;;;;;;57.00;5.07;;;;;;;;;;5013568;28;20273;-57
2023/06/03 21:27:48;;;;;;;51.83;5.03;;;;;;;;;;5013847;28;20076;-57
2023/06/03 21:30:14;;;;;;;53.83;4.97;;;;;;;;;;5014776;28;20325;-57
2023/06/03 21:32:39;;;;;;;89.68;7.20;;;;;;;;;;5013274;28;20029;-57
2023/06/03 21:35:05;;;;;;;53.05;5.13;;;;;;;;;;5015602;28;20044;-55
2023/06/03 21:37:31;;;;;;;111.45;8.38;;;;;;;;;;5011765;28;20064;-56
2023/06/03 21:39:56;;;;;;;52.13;4.67;;;;;;;;;;5015797;28;20517;-57
2023/06/03 21:42:21;;;;;;;57.20;5.13;;;;;;;;;;5013879;28;20289;-57
2023/06/03 21:44:47;;;;;;;49.08;4.57;;;;;;;;;;5014337;28;20025;-58
2023/06/03 21:47:14;;;;;;;54.10;4.90;;;;;;;;;;5014148;28;20041;-57
2023/06/03 21:49:40;;;;;;;122.75;9.45;;;;;;;;;;5013462;28;20025;-57
2023/06/03 21:52:05;;;;;;;66.18;5.82;;;;;;;;;;5013503;28;20022;-56
2023/06/03 21:54:30;;;;;;;95.45;7.22;;;;;;;;;;5013982;28;20096;-58
2023/06/03 21:56:55;;;;;;;53.63;4.95;;;;;;;;;;5006053;28;20474;-56
2023/06/03 21:59:21;;;;;;;49.03;4.55;;;;;;;;;;5016164;28;20025;-59
2023/06/03 22:01:46;;;;;;;103.47;7.80;;;;;;;;;;5012522;28;20041;-57
2023/06/03 22:04:11;;;;;;;49.00;4.70;;;;;;;;;;5016322;28;20621;-58
2023/06/03 22:06:36;;;;;;;95.20;7.30;;;;;;;;;;5012671;28;20316;-57
2023/06/03 22:09:02;;;;;;;67.07;5.78;;;;;;;;;;5013618;28;20029;-57
2023/06/03 22:11:30;;;;;;;58.22;5.30;;;;;;;;;;5011999;28;20107;-54
2023/06/03 22:13:56;;;;;;;64.57;5.50;;;;;;;;;;5013456;28;20478;-55
2023/06/03 22:16:21;;;;;;;49.45;4.63;;;;;;;;;;5013179;28;20041;-54
2023/06/03 22:18:47;;;;;;;54.05;5.03;;;;;;;;;;5013310;28;21048;-55
2023/06/03 22:21:12;;;;;;;65.15;5.53;;;;;;;;;;5012685;28;20120;-55
2023/06/03 22:23:38;;;;;;;89.88;7.32;;;;;;;;;;5012748;28;20079;-55
2023/06/03 22:26:03;;;;;;;56.63;5.15;;;;;;;;;;5014363;28;20067;-55
2023/06/03 22:28:28;;;;;;;62.17;5.47;;;;;;;;;;5013851;28;20048;-54
2023/06/03 22:30:53;;;;;;;87.95;6.65;;;;;;;;;;5013970;28;20295;-56
2023/06/03 22:33:19;;;;;;;62.85;4.93;;;;;;;;;;5015382;28;20071;-54
2023/06/03 22:35:44;;;;;;;94.40;7.82;;;;;;;;;;5013457;28;20091;-55
2023/06/03 22:38:10;;;;;;;50.67;4.80;;;;;;;;;;5014109;28;20018;-54
2023/06/03 22:40:35;;;;;;;127.43;9.43;;;;;;;;;;5012936;28;20041;-55
2023/06/03 22:43:00;;;;;;;60.33;5.05;;;;;;;;;;5013416;28;20644;-55
2023/06/03 22:45:25;;;;;;;62.92;5.25;;;;;;;;;;5014319;28;20037;-57
2023/06/03 22:47:51;;;;;;;67.35;5.53;;;;;;;;;;5015072;28;20021;-56
2023/06/03 22:50:16;;;;;;;47.47;4.50;;;;;;;;;;5016053;28;20029;-56
2023/06/03 22:52:41;;;;;;;107.00;8.57;;;;;;;;;;5011658;28;20021;-56
2023/06/03 22:55:07;;;;;;;63.88;5.25;;;;;;;;;;5011421;28;20419;-54
2023/06/03 22:57:32;;;;;;;76.35;6.30;;;;;;;;;;5011823;28;20022;-58
2023/06/03 22:59:58;;;;;;;68.20;5.40;;;;;;;;;;5013056;28;20116;-56
2023/06/03 23:02:23;;;;;;;47.97;4.75;;;;;;;;;;5011750;28;20287;-58
2023/06/03 23:04:48;;;;;;;106.68;7.68;;;;;;;;;;5012383;28;20075;-57
2023/06/03 23:07:13;;;;;;;70.57;5.43;;;;;;;;;;5014069;28;20033;-58
2023/06/03 23:09:39;;;;;;;111.05;8.52;;;;;;;;;;5011669;28;20896;-57
2023/06/03 23:12:04;;;;;;;61.90;5.00;;;;;;;;;;5011776;28;20090;-56
2023/06/03 23:14:29;;;;;;;67.72;5.22;;;;;;;;;;5014540;28;20025;-56
2023/06/03 23:16:55;;;;;;;43.97;4.33;;;;;;;;;;5014001;28;20596;-62
2023/06/03 23:19:20;;;;;;;70.97;5.32;;;;;;;;;;5015851;28;20280;-61
2023/06/03 23:21:45;;;;;;;115.93;8.43;;;;;;;;;;5012396;28;20102;-57
2023/06/03 23:24:10;;;;;;;52.92;4.65;;;;;;;;;;5014729;28;20032;-56
2023/06/03 23:26:36;;;;;;;116.53;8.77;;;;;;;;;;5012479;28;20089;-55
2023/06/03 23:29:02;;;;;;;62.88;5.00;;;;;;;;;;5015554;28;20569;-55
2023/06/03 23:31:27;;;;;;;52.15;4.35;;;;;;;;;;5012419;28;20029;-58
2023/06/03 23:33:52;;;;;;;70.32;5.38;;;;;;;;;;5012972;28;20063;-55
2023/06/03 23:36:19;;;;;;;44.63;4.20;;;;;;;;;;5012498;28;20037;-56
2023/06/03 23:38:45;;;;;;;113.45;8.57;;;;;;;;;;5013016;28;20268;-55
2023/06/03 23:41:10;;;;;;;48.40;4.45;;;;;;;;;;5012377;28;20052;-56
2023/06/03 23:43:35;;;;;;;59.53;5.07;;;;;;;;;;5011757;28;20206;-58
2023/06/03 23:46:00;;;;;;;71.67;5.50;;;;;;;;;;5012638;28;20726;-56
2023/06/03 23:48:25;;;;;;;55.83;4.40;;;;;;;;;;5013306;28;20771;-55
2023/06/03 23:50:51;;;;;;;143.30;9.82;;;;;;;;;;5010616;28;20728;-54
2023/06/03 23:53:16;;;;;;;50.10;4.30;;;;;;;;;;5014457;28;20025;-55
2023/06/03 23:55:41;;;;;;;71.90;5.70;;;;;;;;;;5013196;28;20802;-56
2023/06/03 23:58:06;;;;;;;59.57;5.07;;;;;;;;;;5014240;28;20037;-56
